Time;durP1;ratioP1;P1;durP2;ratioP2;P2;SDS_P1;SDS_P2;PMS_P1;PMS_P2;Temp;Humidity;BMP_temperature;BMP_pressure;BME280_temperature;BME280_humidity;BME280_pressure;Samples;Min_cycle;Max_cycle;Signal;HPM_P1;HPM_P2
2023/09/17 00:03:58;;;;;;;8.02;5.50;;;;;;;;;;5021927;23;20060;-61
2023/09/17 00:06:24;;;;;;;8.80;5.30;;;;;;;;;;5044175;28;20497;-60
2023/09/17 00:08:49;;;;;;;6.75;5.03;;;;;;;;;;5053802;22;20047;-64
2023/09/17 00:11:14;;;;;;;7.03;5.07;;;;;;;;;;5020434;28;20415;-62
2023/09/17 00:13:39;;;;;;;7.40;4.45;;;;;;;;;;5029130;28;20468;-62
2023/09/17 00:16:05;;;;;;;5.68;4.15;;;;;;;;;;5028627;28;20148;-61
2023/09/17 00:18:30;;;;;;;6.57;4.40;;;;;;;;;;5033610;28;20044;-62
2023/09/17 00:20:55;;;;;;;7.17;4.67;;;;;;;;;;5044956;28;20489;-63
2023/09/17 00:23:21;;;;;;;7.87;4.43;;;;;;;;;;5046732;22;20288;-58
2023/09/17 00:25:46;;;;;;;6.73;4.77;;;;;;;;;;5024209;28;20283;-58
2023/09/17 00:28:11;;;;;;;6.20;4.20;;;;;;;;;;5026044;28;20056;-59
2023/09/17 00:30:36;;;;;;;6.27;4.50;;;;;;;;;;5013151;28;20030;-59
2023/09/17 00:33:02;;;;;;;7.37;5.37;;;;;;;;;;5015574;28;20612;-59
2023/09/17 00:35:27;;;;;;;6.10;5.22;;;;;;;;;;5026996;28;20284;-58
2023/09/17 00:37:52;;;;;;;9.05;5.70;;;;;;;;;;5026795;28;20025;-59
2023/09/17 00:40:20;;;;;;;8.90;6.83;;;;;;;;;;5024066;28;20072;-58
2023/09/17 00:42:45;;;;;;;8.00;5.95;;;;;;;;;;5023390;23;20280;-63
2023/09/17 00:45:12;;;;;;;9.37;6.47;;;;;;;;;;5017717;28;20584;-67
2023/09/17 00:47:37;;;;;;;9.40;7.00;;;;;;;;;;5017866;28;20394;-64
2023/09/17 00:50:02;;;;;;;9.88;7.18;;;;;;;;;;5012740;28;20427;-65
2023/09/17 00:52:28;;;;;;;12.05;8.13;;;;;;;;;;5020325;28;20038;-63
2023/09/17 00:54:53;;;;;;;9.02;7.38;;;;;;;;;;5035477;28;20121;-64
2023/09/17 00:57:18;;;;;;;9.67;7.80;;;;;;;;;;4990892;28;20030;-65
2023/09/17 00:59:44;;;;;;;10.88;8.48;;;;;;;;;;5005238;28;20026;-65
2023/09/17 01:02:09;;;;;;;9.82;8.55;;;;;;;;;;5014832;28;20037;-64
2023/09/17 01:04:34;;;;;;;11.97;9.10;;;;;;;;;;5019968;28;20029;-66
2023/09/17 01:06:59;;;;;;;11.73;9.37;;;;;;;;;;5020641;28;20327;-65
2023/09/17 01:09:28;;;;;;;11.67;9.10;;;;;;;;;;5026376;28;20265;-67
2023/09/17 01:11:54;;;;;;;11.55;9.45;;;;;;;;;;5007658;28;20474;-65
2023/09/17 01:14:19;;;;;;;12.63;9.70;;;;;;;;;;5011485;28;20029;-64
2023/09/17 01:16:47;;;;;;;13.68;9.85;;;;;;;;;;5010573;28;20712;-64
2023/09/17 01:19:21;;;;;;;13.85;9.68;;;;;;;;;;5035841;28;20036;-64
2023/09/17 01:22:06;;;;;;;13.00;10.27;;;;;;;;;;5019901;28;20749;-66
2023/09/17 01:24:37;;;;;;;14.27;10.88;;;;;;;;;;5020711;28;20044;-66
2023/09/17 01:27:06;;;;;;;19.05;10.93;;;;;;;;;;5019105;28;20041;-65
2023/09/17 01:29:34;;;;;;;14.50;10.95;;;;;;;;;;5018990;28;20650;-65
2023/09/17 01:32:00;;;;;;;15.40;11.15;;;;;;;;;;5001598;28;20116;-64
2023/09/17 01:34:25;;;;;;;13.98;11.02;;;;;;;;;;5002036;28;20435;-65
2023/09/17 01:36:52;;;;;;;14.13;11.27;;;;;;;;;;5017372;28;20036;-67
2023/09/17 01:39:25;;;;;;;15.43;11.02;;;;;;;;;;5001858;28;20409;-66
2023/09/17 01:41:50;;;;;;;12.73;10.35;;;;;;;;;;5020126;28;20446;-64
2023/09/17 01:44:15;;;;;;;14.47;11.07;;;;;;;;;;5017459;28;20072;-64
2023/09/17 01:46:40;;;;;;;14.50;10.13;;;;;;;;;;5010318;28;20060;-64
2023/09/17 01:49:06;;;;;;;14.00;9.50;;;;;;;;;;4998323;28;20033;-66
2023/09/17 01:51:32;;;;;;;12.05;9.73;;;;;;;;;;5011172;28;20049;-64
2023/09/17 01:53:58;;;;;;;12.40;9.32;;;;;;;;;;5022642;28;20116;-63
2023/09/17 01:56:23;;;;;;;14.50;9.43;;;;;;;;;;5033771;28;20430;-64
2023/09/17 01:58:48;;;;;;;12.37;9.53;;;;;;;;;;5019709;28;20276;-63
2023/09/17 02:01:13;;;;;;;14.50;10.00;;;;;;;;;;5019862;28;20672;-65
2023/09/17 02:03:39;;;;;;;14.40;10.93;;;;;;;;;;5012627;28;20041;-66
2023/09/17 02:06:04;;;;;;;14.52;10.60;;;;;;;;;;5001098;28;20413;-64
2023/09/17 02:08:30;;;;;;;13.17;10.03;;;;;;;;;;5018673;28;20512;-64
2023/09/17 02:10:55;;;;;;;14.98;10.85;;;;;;;;;;5018742;28;20762;-64
2023/09/17 02:13:20;;;;;;;14.10;11.20;;;;;;;;;;5018058;28;20033;-66
2023/09/17 02:15:46;;;;;;;13.90;11.20;;;;;;;;;;5011278;28;20861;-64
2023/09/17 02:18:11;;;;;;;13.57;11.03;;;;;;;;;;5015733;28;20107;-64
2023/09/17 02:20:39;;;;;;;16.50;10.77;;;;;;;;;;5016807;28;20314;-65
2023/09/17 02:23:05;;;;;;;15.88;11.95;;;;;;;;;;5019316;28;20045;-64
2023/09/17 02:25:30;;;;;;;15.75;11.55;;;;;;;;;;5001449;28;20040;-64
2023/09/17 02:27:55;;;;;;;15.40;10.93;;;;;;;;;;5017898;28;20338;-65
2023/09/17 02:30:20;;;;;;;16.40;11.73;;;;;;;;;;5017730;28;20033;-64
2023/09/17 02:32:46;;;;;;;16.07;11.40;;;;;;;;;;5008082;28;20772;-66
2023/09/17 02:35:11;;;;;;;15.27;11.53;;;;;;;;;;5011347;28;20303;-65
2023/09/17 02:37:37;;;;;;;14.30;10.98;;;;;;;;;;4989631;28;20034;-66
2023/09/17 02:40:04;;;;;;;15.77;11.98;;;;;;;;;;4999674;28;20120;-64
2023/09/17 02:42:30;;;;;;;14.95;11.82;;;;;;;;;;4997189;28;20045;-65
2023/09/17 02:44:55;;;;;;;16.13;12.20;;;;;;;;;;5003616;28;20160;-65
2023/09/17 02:47:20;;;;;;;16.30;11.93;;;;;;;;;;4991493;28;20073;-64
2023/09/17 02:49:46;;;;;;;17.13;12.40;;;;;;;;;;5005856;28;20037;-64
2023/09/17 02:52:11;;;;;;;16.27;11.70;;;;;;;;;;5005008;28;20659;-64
2023/09/17 02:54:36;;;;;;;17.83;12.17;;;;;;;;;;5003633;28;20044;-65
2023/09/17 02:57:02;;;;;;;16.93;11.70;;;;;;;;;;5020557;28;20303;-65
2023/09/17 02:59:27;;;;;;;16.45;12.38;;;;;;;;;;5018736;28;20029;-64
2023/09/17 03:01:52;;;;;;;15.73;11.77;;;;;;;;;;5009327;28;20441;-65
2023/09/17 03:04:17;;;;;;;15.50;11.97;;;;;;;;;;5016831;28;20268;-64
2023/09/17 03:06:43;;;;;;;16.70;12.00;;;;;;;;;;5017129;28;20054;-66
2023/09/17 03:09:11;;;;;;;16.87;12.03;;;;;;;;;;5016721;28;20275;-64
2023/09/17 03:11:36;;;;;;;18.92;11.82;;;;;;;;;;5013061;28;20030;-64
2023/09/17 03:14:01;;;;;;;15.27;11.87;;;;;;;;;;5005418;28;20033;-66
2023/09/17 03:16:27;;;;;;;14.88;11.65;;;;;;;;;;4999980;28;20272;-65
2023/09/17 03:18:52;;;;;;;14.23;11.70;;;;;;;;;;5001520;28;20045;-65
2023/09/17 03:21:18;;;;;;;15.47;11.53;;;;;;;;;;4998838;28;20053;-64
2023/09/17 03:23:43;;;;;;;15.65;11.80;;;;;;;;;;4997594;28;20037;-63
2023/09/17 03:26:08;;;;;;;14.80;11.60;;;;;;;;;;4999607;28;20462;-66
2023/09/17 03:28:34;;;;;;;15.48;11.70;;;;;;;;;;5015371;28;20065;-64
2023/09/17 03:30:59;;;;;;;17.25;12.07;;;;;;;;;;5004294;28;20080;-63
2023/09/17 03:33:25;;;;;;;14.68;11.23;;;;;;;;;;5010915;28;20493;-66
2023/09/17 03:35:51;;;;;;;18.33;11.80;;;;;;;;;;4999118;28;20494;-63
2023/09/17 03:38:16;;;;;;;17.35;11.52;;;;;;;;;;5016216;28;20516;-64
2023/09/17 03:40:41;;;;;;;15.98;12.27;;;;;;;;;;5016659;28;20025;-65
2023/09/17 03:43:08;;;;;;;17.93;11.27;;;;;;;;;;5000299;28;20036;-63
2023/09/17 03:45:33;;;;;;;18.17;12.70;;;;;;;;;;4991837;28;20694;-64
2023/09/17 03:47:58;;;;;;;17.85;12.05;;;;;;;;;;5000780;28;20409;-64
2023/09/17 03:50:24;;;;;;;15.03;12.00;;;;;;;;;;5010948;28;20091;-64
2023/09/17 03:52:50;;;;;;;16.60;12.07;;;;;;;;;;5016668;28;20117;-65
2023/09/17 03:55:15;;;;;;;16.17;12.25;;;;;;;;;;4990950;28;20426;-64
2023/09/17 03:57:40;;;;;;;17.77;12.77;;;;;;;;;;5016934;28;20702;-65
2023/09/17 04:00:07;;;;;;;20.40;14.05;;;;;;;;;;4998916;28;20308;-64
2023/09/17 04:02:35;;;;;;;19.08;13.48;;;;;;;;;;4995872;28;20540;-63
2023/09/17 04:05:01;;;;;;;17.77;13.38;;;;;;;;;;5012984;28;20033;-64
2023/09/17 04:07:26;;;;;;;16.85;13.60;;;;;;;;;;5013376;28;20062;-65
2023/09/17 04:09:51;;;;;;;20.13;13.52;;;;;;;;;;5013818;28;20083;-65
2023/09/17 04:12:17;;;;;;;20.90;13.43;;;;;;;;;;4995916;28;20489;-65
2023/09/17 04:14:42;;;;;;;18.73;13.00;;;;;;;;;;5011675;28;20018;-64
2023/09/17 04:17:07;;;;;;;17.50;12.63;;;;;;;;;;5012740;28;20748;-64
2023/09/17 04:19:32;;;;;;;18.33;13.03;;;;;;;;;;5018441;28;20072;-65
2023/09/17 04:21:58;;;;;;;17.48;11.95;;;;;;;;;;5015550;28;20746;-64
2023/09/17 04:24:24;;;;;;;17.33;12.13;;;;;;;;;;5016954;28;20453;-64
2023/09/17 04:26:49;;;;;;;16.70;11.63;;;;;;;;;;5016069;28;20734;-65
2023/09/17 04:29:14;;;;;;;17.07;12.37;;;;;;;;;;5014457;28;20464;-64
2023/09/17 04:31:39;;;;;;;17.27;11.98;;;;;;;;;;5019265;28;20058;-64
2023/09/17 04:34:05;;;;;;;18.33;12.57;;;;;;;;;;5017131;28;20033;-65
2023/09/17 04:36:30;;;;;;;18.57;13.07;;;;;;;;;;5017883;28;20383;-65
2023/09/17 04:38:55;;;;;;;18.77;12.57;;;;;;;;;;5016537;28;20324;-64
2023/09/17 04:41:20;;;;;;;18.23;13.05;;;;;;;;;;5017616;28;20535;-63
2023/09/17 04:43:46;;;;;;;17.03;12.60;;;;;;;;;;5017680;28;20057;-64
2023/09/17 04:46:11;;;;;;;19.23;13.68;;;;;;;;;;5014399;28;20072;-64
2023/09/17 04:48:38;;;;;;;18.48;12.68;;;;;;;;;;4994593;28;20057;-64
2023/09/17 04:51:04;;;;;;;18.55;13.52;;;;;;;;;;4983011;28;20046;-65
2023/09/17 04:53:29;;;;;;;19.80;13.43;;;;;;;;;;5006890;28;20037;-64
2023/09/17 04:55:54;;;;;;;18.13;13.65;;;;;;;;;;4999484;28;20511;-66
2023/09/17 04:58:19;;;;;;;19.23;13.47;;;;;;;;;;5015496;28;20021;-64
2023/09/17 05:00:45;;;;;;;20.03;13.77;;;;;;;;;;5035586;28;20272;-65
2023/09/17 05:03:11;;;;;;;20.35;13.50;;;;;;;;;;5028675;28;20034;-64
2023/09/17 05:05:36;;;;;;;20.75;13.50;;;;;;;;;;5004014;28;20040;-64
2023/09/17 05:08:02;;;;;;;22.33;14.00;;;;;;;;;;5015699;28;20544;-64
2023/09/17 05:10:27;;;;;;;19.17;13.45;;;;;;;;;;4994536;28;20317;-64
2023/09/17 05:12:52;;;;;;;20.47;13.90;;;;;;;;;;4998488;28;20471;-66
2023/09/17 05:15:18;;;;;;;18.20;13.35;;;;;;;;;;5013469;28;20293;-64
2023/09/17 05:17:43;;;;;;;17.08;12.70;;;;;;;;;;5007658;28;20037;-64
2023/09/17 05:20:08;;;;;;;18.73;13.17;;;;;;;;;;5011668;28;20045;-65
2023/09/17 05:22:34;;;;;;;20.15;13.48;;;;;;;;;;4997641;28;20295;-65
2023/09/17 05:24:59;;;;;;;17.75;12.90;;;;;;;;;;5015801;28;20024;-65
2023/09/17 05:27:25;;;;;;;18.65;13.23;;;;;;;;;;4998817;28;20058;-64
2023/09/17 05:29:50;;;;;;;20.10;13.60;;;;;;;;;;5017402;28;20032;-64
2023/09/17 05:35:05;;;;;;;20.58;14.35;;;;;;;;;;5013200;28;20209;-63
2023/09/17 05:37:31;;;;;;;20.25;13.48;;;;;;;;;;5017159;28;20040;-64
2023/09/17 05:39:56;;;;;;;20.60;14.15;;;;;;;;;;5040321;23;20037;-60
2023/09/17 05:42:21;;;;;;;23.15;14.95;;;;;;;;;;5024838;28;20033;-59
2023/09/17 05:44:47;;;;;;;18.57;13.10;;;;;;;;;;5045234;28;20044;-61
2023/09/17 05:47:12;;;;;;;23.17;14.37;;;;;;;;;;5046083;28;20291;-59
2023/09/17 05:49:37;;;;;;;22.55;15.55;;;;;;;;;;5035983;28;20452;-59
2023/09/17 05:52:02;;;;;;;23.67;15.57;;;;;;;;;;5026555;28;20039;-59
2023/09/17 05:54:28;;;;;;;21.80;15.00;;;;;;;;;;5038097;28;20675;-59
2023/09/17 05:56:53;;;;;;;22.88;15.23;;;;;;;;;;5045925;28;20060;-59
2023/09/17 05:59:18;;;;;;;23.25;15.68;;;;;;;;;;5046175;28;20113;-59
2023/09/17 06:01:43;;;;;;;22.70;14.93;;;;;;;;;;5039894;28;20036;-59
2023/09/17 06:04:09;;;;;;;21.60;14.37;;;;;;;;;;5046149;28;20037;-59
2023/09/17 06:06:34;;;;;;;21.40;14.83;;;;;;;;;;5044500;28;20571;-60
2023/09/17 06:08:59;;;;;;;21.53;14.73;;;;;;;;;;5045592;28;20490;-58
2023/09/17 06:11:24;;;;;;;20.93;15.43;;;;;;;;;;5044439;28;20275;-58
2023/09/17 06:13:49;;;;;;;24.50;15.30;;;;;;;;;;5033509;28;20130;-60
2023/09/17 06:16:15;;;;;;;24.30;15.73;;;;;;;;;;5044489;28;20029;-59
2023/09/17 06:18:40;;;;;;;25.10;16.00;;;;;;;;;;5045093;28;20280;-60
2023/09/17 06:21:05;;;;;;;24.43;15.93;;;;;;;;;;5046201;28;20116;-59
2023/09/17 06:23:30;;;;;;;22.83;15.77;;;;;;;;;;5045957;28;20118;-60
2023/09/17 06:25:56;;;;;;;25.57;16.83;;;;;;;;;;5045309;28;20061;-60
2023/09/17 06:28:21;;;;;;;24.60;16.30;;;;;;;;;;5043926;28;20683;-59
2023/09/17 06:30:46;;;;;;;24.23;16.60;;;;;;;;;;5034563;28;20389;-58
2023/09/17 06:33:11;;;;;;;22.10;15.82;;;;;;;;;;5025982;28;20029;-60
2023/09/17 06:35:37;;;;;;;22.60;15.50;;;;;;;;;;5043789;28;20033;-59
2023/09/17 06:38:02;;;;;;;25.00;16.27;;;;;;;;;;5044841;28;20723;-59
2023/09/17 06:40:27;;;;;;;23.00;15.60;;;;;;;;;;5040782;28;20784;-59
2023/09/17 06:42:52;;;;;;;25.00;16.57;;;;;;;;;;5026758;28;20272;-59
2023/09/17 06:45:18;;;;;;;22.27;15.27;;;;;;;;;;5040494;28;20267;-59
2023/09/17 06:47:43;;;;;;;27.03;16.53;;;;;;;;;;5043116;28;20741;-59
2023/09/17 06:50:08;;;;;;;22.48;15.55;;;;;;;;;;5039818;28;20394;-59
2023/09/17 06:52:34;;;;;;;23.90;16.20;;;;;;;;;;5028168;28;20087;-59
2023/09/17 06:54:59;;;;;;;22.43;15.73;;;;;;;;;;5043511;28;20035;-59
2023/09/17 06:57:24;;;;;;;22.13;15.43;;;;;;;;;;5043375;28;20325;-58
2023/09/17 06:59:49;;;;;;;21.33;14.73;;;;;;;;;;5039858;28;20029;-58
2023/09/17 07:02:15;;;;;;;19.77;14.20;;;;;;;;;;5045645;28;20090;-59
2023/09/17 07:04:40;;;;;;;21.65;15.43;;;;;;;;;;5043466;28;20083;-58
2023/09/17 07:07:05;;;;;;;20.50;14.40;;;;;;;;;;5044749;28;20072;-58
2023/09/17 07:09:31;;;;;;;19.35;13.48;;;;;;;;;;5039235;28;20292;-58
2023/09/17 07:11:56;;;;;;;22.45;14.80;;;;;;;;;;5043862;28;20029;-58
2023/09/17 07:14:22;;;;;;;22.17;14.97;;;;;;;;;;5044550;28;20036;-59
2023/09/17 07:16:47;;;;;;;20.30;14.23;;;;;;;;;;5033821;28;20645;-59
2023/09/17 07:19:12;;;;;;;21.67;14.90;;;;;;;;;;5043634;28;20463;-59
2023/09/17 07:21:37;;;;;;;22.37;15.23;;;;;;;;;;5045243;28;20405;-60
2023/09/17 07:24:03;;;;;;;22.47;15.60;;;;;;;;;;5044580;28;20599;-59
2023/09/17 07:26:29;;;;;;;22.63;15.43;;;;;;;;;;5026853;28;20046;-59
2023/09/17 07:28:54;;;;;;;22.80;14.70;;;;;;;;;;5039151;28;20037;-61
2023/09/17 07:31:19;;;;;;;23.87;15.57;;;;;;;;;;5044636;28;20029;-60
2023/09/17 07:33:44;;;;;;;21.92;15.07;;;;;;;;;;5043712;28;20090;-58
2023/09/17 07:36:11;;;;;;;23.52;15.95;;;;;;;;;;5043309;28;20436;-59
2023/09/17 07:38:36;;;;;;;23.42;15.57;;;;;;;;;;5042840;28;20464;-60
2023/09/17 07:41:02;;;;;;;24.47;15.70;;;;;;;;;;5044462;28;20183;-59
2023/09/17 07:43:27;;;;;;;21.90;15.68;;;;;;;;;;5044314;28;20714;-59
2023/09/17 07:45:52;;;;;;;22.85;15.98;;;;;;;;;;5038347;28;20032;-59
2023/09/17 07:48:18;;;;;;;24.37;16.00;;;;;;;;;;5039892;28;20445;-60
2023/09/17 07:50:43;;;;;;;24.17;15.98;;;;;;;;;;5042024;28;20336;-59
2023/09/17 07:53:09;;;;;;;27.63;16.52;;;;;;;;;;5041518;28;20035;-60
2023/09/17 07:55:34;;;;;;;24.88;16.30;;;;;;;;;;5046699;28;20041;-60
2023/09/17 07:57:59;;;;;;;24.20;15.67;;;;;;;;;;5048135;28;20029;-60
2023/09/17 08:00:25;;;;;;;24.17;16.40;;;;;;;;;;5047860;28;20049;-59
2023/09/17 08:02:50;;;;;;;22.83;15.93;;;;;;;;;;5048262;28;20125;-59
2023/09/17 08:05:16;;;;;;;24.13;16.45;;;;;;;;;;5041878;28;20048;-60
2023/09/17 08:07:41;;;;;;;22.63;15.25;;;;;;;;;;5047893;28;20091;-60
2023/09/17 08:10:06;;;;;;;25.33;15.77;;;;;;;;;;5047042;28;20098;-59
2023/09/17 08:12:32;;;;;;;23.65;15.77;;;;;;;;;;5048091;28;20267;-59
2023/09/17 08:14:57;;;;;;;25.38;16.98;;;;;;;;;;5045099;28;20033;-59
2023/09/17 08:17:23;;;;;;;25.52;17.33;;;;;;;;;;5039417;28;20041;-59
2023/09/17 08:19:48;;;;;;;24.35;16.70;;;;;;;;;;5046830;28;20362;-59
2023/09/17 08:22:13;;;;;;;23.77;17.27;;;;;;;;;;5048114;28;20029;-59
2023/09/17 08:24:38;;;;;;;26.67;17.47;;;;;;;;;;5047489;28;20132;-59
2023/09/17 08:27:04;;;;;;;24.30;16.77;;;;;;;;;;5047845;28;20061;-59
2023/09/17 08:29:29;;;;;;;25.27;16.70;;;;;;;;;;5045897;28;20033;-59
2023/09/17 08:31:55;;;;;;;25.37;17.23;;;;;;;;;;5046400;28;20037;-58
2023/09/17 08:34:20;;;;;;;24.08;15.93;;;;;;;;;;5027828;28;20617;-58
2023/09/17 08:36:45;;;;;;;25.07;16.13;;;;;;;;;;5044687;28;20060;-58
2023/09/17 08:39:11;;;;;;;24.63;16.33;;;;;;;;;;5045030;28;20621;-59
2023/09/17 08:41:36;;;;;;;26.55;16.55;;;;;;;;;;5040149;28;20033;-59
2023/09/17 08:44:05;;;;;;;27.38;17.92;;;;;;;;;;5041214;28;20033;-58
2023/09/17 08:46:31;;;;;;;26.83;17.30;;;;;;;;;;5046656;28;20047;-59
2023/09/17 08:48:56;;;;;;;27.10;17.00;;;;;;;;;;5041781;28;20037;-60
2023/09/17 08:51:23;;;;;;;26.90;18.23;;;;;;;;;;5040182;28;20040;-59
2023/09/17 08:54:08;;;;;;;29.65;18.50;;;;;;;;;;5046940;28;20820;-58
2023/09/17 08:56:34;;;;;;;27.15;17.65;;;;;;;;;;5015839;28;20888;-58
2023/09/17 08:59:20;;;;;;;26.83;17.52;;;;;;;;;;5043684;28;20094;-59
2023/09/17 09:01:46;;;;;;;27.15;18.42;;;;;;;;;;5029492;28;20037;-57
2023/09/17 09:04:11;;;;;;;25.83;17.80;;;;;;;;;;5045106;28;20041;-58
2023/09/17 09:06:36;;;;;;;26.90;18.00;;;;;;;;;;5056356;28;20524;-58
2023/09/17 09:09:05;;;;;;;26.02;17.00;;;;;;;;;;5049195;28;20106;-58
2023/09/17 09:11:31;;;;;;;27.77;17.80;;;;;;;;;;5044736;28;20489;-58
2023/09/17 09:13:56;;;;;;;24.75;16.92;;;;;;;;;;5026692;28;20036;-58
2023/09/17 09:16:21;;;;;;;23.33;15.43;;;;;;;;;;5037201;28;20505;-59
2023/09/17 09:18:46;;;;;;;25.07;16.20;;;;;;;;;;5028441;28;20271;-59
2023/09/17 09:21:14;;;;;;;24.25;16.80;;;;;;;;;;5046607;28;20341;-59
2023/09/17 09:23:39;;;;;;;25.55;17.15;;;;;;;;;;5046871;28;20045;-59
2023/09/17 09:26:05;;;;;;;25.43;16.00;;;;;;;;;;5046634;28;20488;-59
2023/09/17 09:28:31;;;;;;;23.42;15.80;;;;;;;;;;5046497;28;20818;-59
2023/09/17 09:30:56;;;;;;;23.80;16.70;;;;;;;;;;5039533;28;20033;-58
2023/09/17 09:33:22;;;;;;;25.95;16.55;;;;;;;;;;5045196;28;20329;-58
2023/09/17 09:35:47;;;;;;;25.17;16.00;;;;;;;;;;5044893;28;20025;-59
2023/09/17 09:38:13;;;;;;;26.50;16.38;;;;;;;;;;5046407;28;20041;-60
2023/09/17 09:40:40;;;;;;;23.97;15.87;;;;;;;;;;5043105;28;20160;-59
2023/09/17 09:43:05;;;;;;;23.45;15.88;;;;;;;;;;5027080;28;20025;-58
2023/09/17 09:45:30;;;;;;;24.83;16.27;;;;;;;;;;5027382;28;20485;-58
2023/09/17 09:47:57;;;;;;;22.75;16.02;;;;;;;;;;5045883;28;20509;-58
2023/09/17 09:50:22;;;;;;;23.98;15.32;;;;;;;;;;5046146;28;20505;-58
2023/09/17 09:52:48;;;;;;;23.23;16.03;;;;;;;;;;5046408;28;20064;-58
2023/09/17 09:55:13;;;;;;;24.67;15.55;;;;;;;;;;5046212;28;20839;-59
2023/09/17 09:57:38;;;;;;;23.08;16.38;;;;;;;;;;5044328;28;20083;-58
2023/09/17 10:00:26;;;;;;;23.75;15.60;;;;;;;;;;5043780;28;20060;-61
2023/09/17 10:02:51;;;;;;;23.77;16.23;;;;;;;;;;5046208;28;20095;-58
2023/09/17 10:05:18;;;;;;;25.57;15.97;;;;;;;;;;5044466;28;20037;-58
2023/09/17 10:07:47;;;;;;;25.35;16.92;;;;;;;;;;5044078;28;20693;-60
2023/09/17 10:10:12;;;;;;;22.55;14.93;;;;;;;;;;5042689;28;20012;-58
2023/09/17 10:12:37;;;;;;;27.10;16.07;;;;;;;;;;5030493;28;20021;-58
2023/09/17 10:15:04;;;;;;;23.07;15.83;;;;;;;;;;5024895;28;20111;-58
2023/09/17 10:17:30;;;;;;;24.63;16.55;;;;;;;;;;5042215;28;20532;-59
2023/09/17 10:19:55;;;;;;;22.92;16.02;;;;;;;;;;5043218;28;20021;-58
2023/09/17 10:22:20;;;;;;;25.43;16.57;;;;;;;;;;5044283;28;20025;-58
2023/09/17 10:24:46;;;;;;;25.27;16.25;;;;;;;;;;5045489;28;20028;-59
2023/09/17 10:27:12;;;;;;;21.58;15.52;;;;;;;;;;5027036;28;20036;-58
2023/09/17 10:29:38;;;;;;;25.40;17.15;;;;;;;;;;5037371;28;20472;-59
2023/09/17 10:32:03;;;;;;;23.67;16.23;;;;;;;;;;5044144;28;20116;-58
2023/09/17 10:34:31;;;;;;;23.45;16.33;;;;;;;;;;5045251;28;20376;-56
2023/09/17 10:36:56;;;;;;;22.10;16.20;;;;;;;;;;5043741;28;20017;-58
2023/09/17 10:39:22;;;;;;;22.85;16.52;;;;;;;;;;5054550;28;20166;-58
2023/09/17 10:41:48;;;;;;;22.38;16.58;;;;;;;;;;5050893;28;20034;-59
2023/09/17 10:44:14;;;;;;;23.45;16.38;;;;;;;;;;5064314;28;20017;-59
2023/09/17 10:46:40;;;;;;;22.10;16.42;;;;;;;;;;5054339;28;20129;-61
2023/09/17 10:49:06;;;;;;;26.98;17.55;;;;;;;;;;5047663;28;20009;-57
2023/09/17 10:51:31;;;;;;;25.40;17.83;;;;;;;;;;5038117;28;20021;-59
2023/09/17 10:53:56;;;;;;;25.03;18.10;;;;;;;;;;5044861;22;20065;-60
2023/09/17 10:56:21;;;;;;;24.48;17.33;;;;;;;;;;5027397;28;20255;-59
2023/09/17 10:58:50;;;;;;;23.45;16.30;;;;;;;;;;5031815;28;20028;-61
2023/09/17 11:01:15;;;;;;;23.65;16.38;;;;;;;;;;5033776;28;20037;-61
2023/09/17 11:03:42;;;;;;;24.90;17.08;;;;;;;;;;5034143;28;20055;-60
2023/09/17 11:06:16;;;;;;;23.63;16.83;;;;;;;;;;5016695;28;20374;-60
2023/09/17 11:08:45;;;;;;;23.92;15.90;;;;;;;;;;5033456;28;20063;-61
2023/09/17 11:11:11;;;;;;;24.83;17.02;;;;;;;;;;5027041;28;20252;-63
2023/09/17 11:13:36;;;;;;;24.65;17.48;;;;;;;;;;5023053;22;20042;-59
2023/09/17 11:16:01;;;;;;;23.88;15.93;;;;;;;;;;5004019;28;20518;-57
2023/09/17 11:18:27;;;;;;;23.47;15.83;;;;;;;;;;5005516;28;20033;-55
2023/09/17 11:21:04;;;;;;;27.80;16.90;;;;;;;;;;5005855;28;20807;-57
2023/09/17 11:23:35;;;;;;;22.73;15.27;;;;;;;;;;5003475;28;20820;-56
2023/09/17 11:26:01;;;;;;;23.30;14.98;;;;;;;;;;5005140;28;20127;-57
2023/09/17 11:28:26;;;;;;;23.73;15.20;;;;;;;;;;5000222;28;20533;-59
2023/09/17 11:30:55;;;;;;;23.25;14.93;;;;;;;;;;4977937;28;20483;-59
2023/09/17 11:33:22;;;;;;;22.60;15.57;;;;;;;;;;4989980;28;20128;-57
2023/09/17 11:35:47;;;;;;;23.38;14.93;;;;;;;;;;4991192;28;20133;-57
2023/09/17 11:38:13;;;;;;;22.97;15.50;;;;;;;;;;4992462;28;20109;-57
2023/09/17 11:40:39;;;;;;;22.07;14.90;;;;;;;;;;4990934;28;20062;-57
2023/09/17 11:43:04;;;;;;;22.60;15.55;;;;;;;;;;4990409;28;20392;-58
2023/09/17 11:45:29;;;;;;;24.37;15.77;;;;;;;;;;4989636;28;20037;-58
2023/09/17 11:47:55;;;;;;;21.70;14.47;;;;;;;;;;4992373;28;20357;-58
2023/09/17 11:50:20;;;;;;;19.60;14.57;;;;;;;;;;4989590;28;20853;-56
2023/09/17 11:53:00;;;;;;;22.08;14.38;;;;;;;;;;4992080;28;20073;-57
2023/09/17 11:55:26;;;;;;;23.88;14.70;;;;;;;;;;5005027;28;20034;-59
2023/09/17 11:57:52;;;;;;;22.45;15.75;;;;;;;;;;4989177;28;20054;-59
2023/09/17 12:00:27;;;;;;;24.00;16.70;;;;;;;;;;4988487;28;20307;-60
2023/09/17 12:02:53;;;;;;;22.70;15.48;;;;;;;;;;4991657;28;20042;-59
2023/09/17 12:05:21;;;;;;;21.90;14.30;;;;;;;;;;4990662;28;20035;-57
2023/09/17 12:07:47;;;;;;;21.13;13.73;;;;;;;;;;4987541;28;20714;-58
2023/09/17 12:10:12;;;;;;;24.58;17.85;;;;;;;;;;4994218;28;20053;-58
2023/09/17 12:12:37;;;;;;;22.37;14.73;;;;;;;;;;4987811;28;20030;-58
2023/09/17 12:15:03;;;;;;;19.70;13.80;;;;;;;;;;4986828;28;20348;-58
2023/09/17 12:17:29;;;;;;;24.00;14.93;;;;;;;;;;4979993;28;20037;-58
2023/09/17 12:20:40;;;;;;;19.15;13.95;;;;;;;;;;4987195;28;20030;-59
2023/09/17 12:23:26;;;;;;;18.92;13.95;;;;;;;;;;4987713;28;20047;-58
2023/09/17 12:25:52;;;;;;;21.85;15.38;;;;;;;;;;4987168;28;20064;-58
2023/09/17 12:28:25;;;;;;;20.33;14.70;;;;;;;;;;4986718;28;20489;-59
2023/09/17 12:30:50;;;;;;;19.80;13.98;;;;;;;;;;4987887;28;20040;-58
2023/09/17 12:33:15;;;;;;;21.63;13.60;;;;;;;;;;4988003;28;20034;-59
2023/09/17 12:35:42;;;;;;;18.47;13.67;;;;;;;;;;4987944;28;20034;-59
2023/09/17 12:38:08;;;;;;;19.63;14.60;;;;;;;;;;5000616;28;20096;-59
2023/09/17 12:40:33;;;;;;;20.85;13.57;;;;;;;;;;4987540;28;20041;-59
2023/09/17 12:42:58;;;;;;;20.60;14.95;;;;;;;;;;4988129;28;20494;-58
2023/09/17 12:45:24;;;;;;;23.20;14.23;;;;;;;;;;4989647;28;20500;-58
2023/09/17 12:47:49;;;;;;;17.40;12.77;;;;;;;;;;4990554;28;20114;-59
2023/09/17 12:50:17;;;;;;;18.98;12.82;;;;;;;;;;4991510;28;20465;-58
2023/09/17 12:52:42;;;;;;;19.98;11.98;;;;;;;;;;4988014;28;20042;-58
2023/09/17 12:55:07;;;;;;;18.17;12.30;;;;;;;;;;4989553;28;20419;-58
2023/09/17 12:57:33;;;;;;;17.60;13.07;;;;;;;;;;4987814;28;20463;-58
2023/09/17 12:59:59;;;;;;;19.40;13.15;;;;;;;;;;4991644;28;20030;-58
2023/09/17 13:02:28;;;;;;;19.25;12.98;;;;;;;;;;4988607;28;20161;-57
2023/09/17 13:04:53;;;;;;;21.73;13.95;;;;;;;;;;4994726;28;20450;-58
2023/09/17 13:07:19;;;;;;;18.03;13.37;;;;;;;;;;4980219;28;20041;-58
2023/09/17 13:09:45;;;;;;;21.38;13.43;;;;;;;;;;4979374;28;20503;-57
2023/09/17 13:12:10;;;;;;;19.73;13.45;;;;;;;;;;4989758;28;20042;-60
2023/09/17 13:14:36;;;;;;;17.63;12.73;;;;;;;;;;4989875;28;20041;-57
2023/09/17 13:17:01;;;;;;;16.13;12.25;;;;;;;;;;5001540;28;20706;-57
2023/09/17 13:19:26;;;;;;;16.77;12.10;;;;;;;;;;4987752;28;20435;-57
2023/09/17 13:21:51;;;;;;;16.33;11.63;;;;;;;;;;4990375;28;20296;-59
2023/09/17 13:24:17;;;;;;;14.52;11.30;;;;;;;;;;4988174;28;20798;-58
2023/09/17 13:26:43;;;;;;;17.35;11.77;;;;;;;;;;4987967;28;20050;-59
2023/09/17 13:29:08;;;;;;;16.50;12.17;;;;;;;;;;4993668;28;20046;-59
2023/09/17 13:31:34;;;;;;;17.67;12.50;;;;;;;;;;4987306;28;20894;-58
2023/09/17 13:33:59;;;;;;;15.43;11.38;;;;;;;;;;4994891;28;20052;-59
2023/09/17 13:36:24;;;;;;;17.90;11.38;;;;;;;;;;5006934;28;20474;-58
2023/09/17 13:38:49;;;;;;;17.83;12.87;;;;;;;;;;5001094;28;20139;-57
2023/09/17 13:41:18;;;;;;;16.03;12.00;;;;;;;;;;4997985;28;20732;-57
2023/09/17 13:43:43;;;;;;;16.40;12.60;;;;;;;;;;4991547;28;20111;-57
2023/09/17 13:46:13;;;;;;;18.30;12.77;;;;;;;;;;4998228;28;20038;-57
2023/09/17 13:48:38;;;;;;;;;;;;;;;;;;5010965;28;20077;-57
2023/09/17 13:51:04;;;;;;;19.15;12.18;;;;;;;;;;4999681;28;19957;-57
2023/09/17 13:53:29;;;;;;;16.83;12.13;;;;;;;;;;5004381;28;20053;-57
2023/09/17 13:55:55;;;;;;;14.20;9.80;;;;;;;;;;5018018;28;20322;-57
2023/09/17 13:58:20;;;;;;;12.70;8.50;;;;;;;;;;4999490;28;20034;-57
2023/09/17 14:00:46;;;;;;;11.03;7.80;;;;;;;;;;5000837;28;20042;-57
2023/09/17 14:03:14;;;;;;;11.57;8.15;;;;;;;;;;5001548;28;20037;-57
2023/09/17 14:05:42;;;;;;;12.25;8.07;;;;;;;;;;4981099;28;20422;-58
2023/09/17 14:08:08;;;;;;;13.02;8.32;;;;;;;;;;4990340;28;20076;-57
2023/09/17 14:10:36;;;;;;;9.48;7.18;;;;;;;;;;4993634;28;20030;-58
2023/09/17 14:13:03;;;;;;;12.20;7.65;;;;;;;;;;4994164;28;20033;-57
2023/09/17 14:15:29;;;;;;;11.35;7.30;;;;;;;;;;4994762;28;20038;-57
2023/09/17 14:17:54;;;;;;;9.23;7.20;;;;;;;;;;4994800;28;20416;-57
2023/09/17 14:20:20;;;;;;;12.20;7.03;;;;;;;;;;4988639;28;20030;-57